Big Canoe, Georgia
Current Conditions -  °F | °C
As of 12:35 AM on Saturday 25 Oct 2014 (Local Time) from KCNI Reporting Station
Clear Clear  
Wind Chill: 52°   Ceiling: Unl
Heat Index: 52°   Visibility: 10mi
Dew Point: 36°   Wind: 3mph
Humidity: 54%   Direction: 260°W
Pressure: 30.04"   Gusts: NA
Location:  34.4645°N, 84.4746°W
Report Text: KCNI 250435Z AUTO 26003KT 10SM CLR 11/02 A3004 RMK AO2
Loading
Personal Weather Stations






























Interactive Weather Map
Tropical Storm Tracking
New forecast layout! Learn more

10-Day Weather Forecast

Advertisements
Track Severe Weather on mobile